sensor_id;sensor_type;location;lat;lon;timestamp;P1;durP1;ratioP1;P2;durP2;ratioP2
8279;SDS011;8335;42.646;23.380;2023-08-08T00:00:28;2.88;;;1.90;;
8279;SDS011;8335;42.646;23.380;2023-08-08T00:02:55;1.80;;;1.70;;
8279;SDS011;8335;42.646;23.380;2023-08-08T00:05:22;2.53;;;1.70;;
8279;SDS011;8335;42.646;23.380;2023-08-08T00:07:49;1.98;;;1.77;;
8279;SDS011;8335;42.646;23.380;2023-08-08T00:10:17;1.67;;;1.58;;
8279;SDS011;8335;42.646;23.380;2023-08-08T00:12:44;2.28;;;2.05;;
8279;SDS011;8335;42.646;23.380;2023-08-08T00:15:11;2.75;;;2.25;;
8279;SDS011;8335;42.646;23.380;2023-08-08T00:17:38;3.05;;;2.60;;
8279;SDS011;8335;42.646;23.380;2023-08-08T00:20:05;3.33;;;2.55;;
8279;SDS011;8335;42.646;23.380;2023-08-08T00:22:33;3.60;;;2.67;;
8279;SDS011;8335;42.646;23.380;2023-08-08T00:25:00;2.90;;;2.60;;
8279;SDS011;8335;42.646;23.380;2023-08-08T00:27:28;2.47;;;2.28;;
8279;SDS011;8335;42.646;23.380;2023-08-08T00:29:55;2.35;;;2.15;;
8279;SDS011;8335;42.646;23.380;2023-08-08T00:32:22;1.88;;;1.77;;
8279;SDS011;8335;42.646;23.380;2023-08-08T00:34:48;1.70;;;1.50;;
8279;SDS011;8335;42.646;23.380;2023-08-08T00:37:15;2.90;;;1.92;;
8279;SDS011;8335;42.646;23.380;2023-08-08T00:39:42;2.15;;;1.90;;
8279;SDS011;8335;42.646;23.380;2023-08-08T00:42:11;2.60;;;1.90;;
8279;SDS011;8335;42.646;23.380;2023-08-08T00:44:39;2.00;;;1.70;;
8279;SDS011;8335;42.646;23.380;2023-08-08T00:47:06;2.13;;;1.60;;
8279;SDS011;8335;42.646;23.380;2023-08-08T00:49:34;1.53;;;1.43;;
8279;SDS011;8335;42.646;23.380;2023-08-08T00:52:01;2.65;;;2.42;;
8279;SDS011;8335;42.646;23.380;2023-08-08T00:54:28;3.97;;;2.43;;
8279;SDS011;8335;42.646;23.380;2023-08-08T00:56:55;3.42;;;2.20;;
8279;SDS011;8335;42.646;23.380;2023-08-08T00:59:22;2.90;;;1.80;;
8279;SDS011;8335;42.646;23.380;2023-08-08T01:01:51;1.83;;;1.70;;
8279;SDS011;8335;42.646;23.380;2023-08-08T01:04:18;2.40;;;1.50;;
8279;SDS011;8335;42.646;23.380;2023-08-08T01:06:48;1.57;;;1.47;;
8279;SDS011;8335;42.646;23.380;2023-08-08T01:09:23;1.87;;;1.77;;
8279;SDS011;8335;42.646;23.380;2023-08-08T01:11:53;1.77;;;1.67;;
8279;SDS011;8335;42.646;23.380;2023-08-08T01:14:20;2.75;;;1.80;;
8279;SDS011;8335;42.646;23.380;2023-08-08T01:16:52;1.70;;;1.60;;
8279;SDS011;8335;42.646;23.380;2023-08-08T01:19:23;1.60;;;1.50;;
8279;SDS011;8335;42.646;23.380;2023-08-08T01:21:53;3.35;;;1.73;;
8279;SDS011;8335;42.646;23.380;2023-08-08T01:24:24;1.60;;;1.50;;
8279;SDS011;8335;42.646;23.380;2023-08-08T01:26:54;1.70;;;1.60;;
8279;SDS011;8335;42.646;23.380;2023-08-08T01:29:21;1.60;;;1.50;;
8279;SDS011;8335;42.646;23.380;2023-08-08T01:31:48;3.07;;;1.40;;
8279;SDS011;8335;42.646;23.380;2023-08-08T01:34:15;1.80;;;1.70;;
8279;SDS011;8335;42.646;23.380;2023-08-08T01:36:44;1.60;;;1.50;;
8279;SDS011;8335;42.646;23.380;2023-08-08T01:39:17;2.63;;;1.40;;
8279;SDS011;8335;42.646;23.380;2023-08-08T01:41:48;2.77;;;1.43;;
8279;SDS011;8335;42.646;23.380;2023-08-08T01:44:16;1.60;;;1.50;;
8279;SDS011;8335;42.646;23.380;2023-08-08T01:46:43;1.60;;;1.50;;
8279;SDS011;8335;42.646;23.380;2023-08-08T01:49:11;2.50;;;1.60;;
8279;SDS011;8335;42.646;23.380;2023-08-08T01:51:38;2.10;;;1.70;;
8279;SDS011;8335;42.646;23.380;2023-08-08T01:54:04;1.90;;;1.80;;
8279;SDS011;8335;42.646;23.380;2023-08-08T01:56:31;2.23;;;1.80;;
8279;SDS011;8335;42.646;23.380;2023-08-08T01:58:59;2.87;;;1.80;;
8279;SDS011;8335;42.646;23.380;2023-08-08T02:01:26;2.73;;;1.57;;
8279;SDS011;8335;42.646;23.380;2023-08-08T02:03:53;1.70;;;1.60;;
8279;SDS011;8335;42.646;23.380;2023-08-08T02:06:20;2.47;;;2.10;;
8279;SDS011;8335;42.646;23.380;2023-08-08T02:08:47;2.23;;;1.80;;
8279;SDS011;8335;42.646;23.380;2023-08-08T02:11:13;1.90;;;1.63;;
8279;SDS011;8335;42.646;23.380;2023-08-08T02:13:40;2.73;;;1.90;;
8279;SDS011;8335;42.646;23.380;2023-08-08T02:16:08;3.57;;;2.10;;
8279;SDS011;8335;42.646;23.380;2023-08-08T02:18:35;3.47;;;1.83;;
8279;SDS011;8335;42.646;23.380;2023-08-08T02:21:05;3.33;;;1.93;;
8279;SDS011;8335;42.646;23.380;2023-08-08T02:23:32;2.03;;;1.83;;
8279;SDS011;8335;42.646;23.380;2023-08-08T02:25:59;2.07;;;1.87;;
8279;SDS011;8335;42.646;23.380;2023-08-08T02:28:26;2.33;;;2.00;;
8279;SDS011;8335;42.646;23.380;2023-08-08T02:30:53;4.63;;;2.00;;
8279;SDS011;8335;42.646;23.380;2023-08-08T02:33:21;2.03;;;1.93;;
8279;SDS011;8335;42.646;23.380;2023-08-08T02:35:48;2.07;;;1.87;;
8279;SDS011;8335;42.646;23.380;2023-08-08T02:38:15;2.23;;;2.03;;
8279;SDS011;8335;42.646;23.380;2023-08-08T02:40:41;2.23;;;2.03;;
8279;SDS011;8335;42.646;23.380;2023-08-08T02:43:08;2.10;;;2.00;;
8279;SDS011;8335;42.646;23.380;2023-08-08T02:45:36;3.57;;;2.23;;
8279;SDS011;8335;42.646;23.380;2023-08-08T02:48:03;3.57;;;2.90;;
8279;SDS011;8335;42.646;23.380;2023-08-08T02:50:31;5.43;;;2.70;;
8279;SDS011;8335;42.646;23.380;2023-08-08T02:52:58;2.73;;;2.53;;
8279;SDS011;8335;42.646;23.380;2023-08-08T02:55:25;3.23;;;2.57;;
8279;SDS011;8335;42.646;23.380;2023-08-08T02:57:51;2.83;;;2.63;;
8279;SDS011;8335;42.646;23.380;2023-08-08T03:00:18;4.67;;;2.27;;
8279;SDS011;8335;42.646;23.380;2023-08-08T03:02:45;2.73;;;2.50;;
8279;SDS011;8335;42.646;23.380;2023-08-08T03:05:12;2.80;;;2.37;;
8279;SDS011;8335;42.646;23.380;2023-08-08T03:07:40;2.77;;;2.57;;
8279;SDS011;8335;42.646;23.380;2023-08-08T03:10:07;2.77;;;2.57;;
8279;SDS011;8335;42.646;23.380;2023-08-08T03:12:34;3.57;;;2.70;;
8279;SDS011;8335;42.646;23.380;2023-08-08T03:15:03;2.93;;;2.73;;
8279;SDS011;8335;42.646;23.380;2023-08-08T03:17:30;3.03;;;2.63;;
8279;SDS011;8335;42.646;23.380;2023-08-08T03:19:57;2.67;;;2.37;;
8279;SDS011;8335;42.646;23.380;2023-08-08T03:22:24;3.23;;;2.30;;
8279;SDS011;8335;42.646;23.380;2023-08-08T03:24:52;3.23;;;2.40;;
8279;SDS011;8335;42.646;23.380;2023-08-08T03:27:19;3.70;;;2.50;;
8279;SDS011;8335;42.646;23.380;2023-08-08T03:29:45;2.80;;;2.50;;
8279;SDS011;8335;42.646;23.380;2023-08-08T03:32:12;2.87;;;2.63;;
8279;SDS011;8335;42.646;23.380;2023-08-08T03:34:39;3.47;;;2.80;;
8279;SDS011;8335;42.646;23.380;2023-08-08T03:37:06;3.93;;;2.73;;
8279;SDS011;8335;42.646;23.380;2023-08-08T03:39:32;2.87;;;2.67;;
8279;SDS011;8335;42.646;23.380;2023-08-08T03:42:00;3.73;;;2.80;;
8279;SDS011;8335;42.646;23.380;2023-08-08T03:44:27;3.07;;;2.80;;
8279;SDS011;8335;42.646;23.380;2023-08-08T03:46:54;3.13;;;2.83;;
8279;SDS011;8335;42.646;23.380;2023-08-08T03:49:21;3.30;;;3.00;;
8279;SDS011;8335;42.646;23.380;2023-08-08T03:51:47;4.37;;;3.23;;
8279;SDS011;8335;42.646;23.380;2023-08-08T03:54:14;4.27;;;3.10;;
8279;SDS011;8335;42.646;23.380;2023-08-08T03:56:41;3.43;;;3.13;;
8279;SDS011;8335;42.646;23.380;2023-08-08T03:59:09;5.53;;;2.83;;
8279;SDS011;8335;42.646;23.380;2023-08-08T04:01:36;3.27;;;3.00;;
8279;SDS011;8335;42.646;23.380;2023-08-08T04:04:03;4.00;;;3.67;;
8279;SDS011;8335;42.646;23.380;2023-08-08T04:06:30;5.13;;;3.13;;
8279;SDS011;8335;42.646;23.380;2023-08-08T04:08:57;3.50;;;3.10;;
8279;SDS011;8335;42.646;23.380;2023-08-08T04:11:25;4.50;;;3.33;;
8279;SDS011;8335;42.646;23.380;2023-08-08T04:13:52;3.50;;;3.20;;
8279;SDS011;8335;42.646;23.380;2023-08-08T04:16:20;3.30;;;3.00;;
8279;SDS011;8335;42.646;23.380;2023-08-08T04:18:47;3.47;;;3.17;;
8279;SDS011;8335;42.646;23.380;2023-08-08T04:21:14;3.73;;;3.33;;
8279;SDS011;8335;42.646;23.380;2023-08-08T04:23:41;4.70;;;3.40;;
8279;SDS011;8335;42.646;23.380;2023-08-08T04:26:07;3.87;;;3.30;;
8279;SDS011;8335;42.646;23.380;2023-08-08T04:28:34;3.60;;;3.27;;
8279;SDS011;8335;42.646;23.380;2023-08-08T04:31:01;4.83;;;3.40;;
8279;SDS011;8335;42.646;23.380;2023-08-08T04:33:29;3.67;;;3.37;;
8279;SDS011;8335;42.646;23.380;2023-08-08T04:35:56;3.80;;;3.50;;
8279;SDS011;8335;42.646;23.380;2023-08-08T04:38:22;5.50;;;3.70;;
8279;SDS011;8335;42.646;23.380;2023-08-08T04:40:49;3.70;;;3.27;;
8279;SDS011;8335;42.646;23.380;2023-08-08T04:43:16;4.07;;;3.67;;
8279;SDS011;8335;42.646;23.380;2023-08-08T04:45:42;6.63;;;3.73;;
8279;SDS011;8335;42.646;23.380;2023-08-08T04:48:09;5.10;;;4.60;;
8279;SDS011;8335;42.646;23.380;2023-08-08T04:50:37;4.47;;;3.57;;
8279;SDS011;8335;42.646;23.380;2023-08-08T04:53:05;4.47;;;3.90;;
8279;SDS011;8335;42.646;23.380;2023-08-08T04:55:32;4.97;;;4.33;;
8279;SDS011;8335;42.646;23.380;2023-08-08T04:57:59;3.90;;;3.60;;
8279;SDS011;8335;42.646;23.380;2023-08-08T05:00:26;5.13;;;3.70;;
8279;SDS011;8335;42.646;23.380;2023-08-08T05:02:52;3.65;;;3.35;;
8279;SDS011;8335;42.646;23.380;2023-08-08T05:05:19;3.92;;;3.50;;
8279;SDS011;8335;42.646;23.380;2023-08-08T05:07:48;6.80;;;4.38;;
8279;SDS011;8335;42.646;23.380;2023-08-08T05:10:14;4.97;;;3.47;;
8279;SDS011;8335;42.646;23.380;2023-08-08T05:12:41;4.15;;;3.25;;
8279;SDS011;8335;42.646;23.380;2023-08-08T05:15:08;4.93;;;3.78;;
8279;SDS011;8335;42.646;23.380;2023-08-08T05:17:35;4.07;;;2.97;;
8279;SDS011;8335;42.646;23.380;2023-08-08T05:20:02;4.65;;;2.80;;
8279;SDS011;8335;42.646;23.380;2023-08-08T05:22:29;3.63;;;2.50;;
8279;SDS011;8335;42.646;23.380;2023-08-08T05:24:58;7.03;;;2.60;;
8279;SDS011;8335;42.646;23.380;2023-08-08T05:27:24;4.72;;;2.47;;
8279;SDS011;8335;42.646;23.380;2023-08-08T05:29:51;3.95;;;2.50;;
8279;SDS011;8335;42.646;23.380;2023-08-08T05:32:18;4.78;;;1.95;;
8279;SDS011;8335;42.646;23.380;2023-08-08T05:34:45;2.70;;;2.30;;
8279;SDS011;8335;42.646;23.380;2023-08-08T05:37:11;3.20;;;2.47;;
8279;SDS011;8335;42.646;23.380;2023-08-08T05:39:38;2.70;;;2.03;;
8279;SDS011;8335;42.646;23.380;2023-08-08T05:42:06;3.53;;;2.20;;
8279;SDS011;8335;42.646;23.380;2023-08-08T05:44:33;4.10;;;2.03;;
8279;SDS011;8335;42.646;23.380;2023-08-08T05:47:00;2.63;;;2.05;;
8279;SDS011;8335;42.646;23.380;2023-08-08T05:49:27;3.88;;;2.10;;
8279;SDS011;8335;42.646;23.380;2023-08-08T05:51:53;4.25;;;1.90;;
8279;SDS011;8335;42.646;23.380;2023-08-08T05:54:20;6.18;;;2.03;;
8279;SDS011;8335;42.646;23.380;2023-08-08T05:56:47;4.63;;;1.85;;
8279;SDS011;8335;42.646;23.380;2023-08-08T05:59:15;5.15;;;1.70;;
8279;SDS011;8335;42.646;23.380;2023-08-08T06:01:42;4.15;;;2.05;;
8279;SDS011;8335;42.646;23.380;2023-08-08T06:04:09;6.57;;;2.13;;
8279;SDS011;8335;42.646;23.380;2023-08-08T06:06:36;2.30;;;2.10;;
8279;SDS011;8335;42.646;23.380;2023-08-08T06:09:03;3.08;;;2.10;;
8279;SDS011;8335;42.646;23.380;2023-08-08T06:11:30;2.47;;;2.28;;
8279;SDS011;8335;42.646;23.380;2023-08-08T06:13:56;3.88;;;2.53;;
8279;SDS011;8335;42.646;23.380;2023-08-08T06:16:25;6.63;;;2.65;;
8279;SDS011;8335;42.646;23.380;2023-08-08T06:18:51;3.38;;;2.40;;
8279;SDS011;8335;42.646;23.380;2023-08-08T06:21:19;3.10;;;2.80;;
8279;SDS011;8335;42.646;23.380;2023-08-08T06:23:45;3.30;;;2.38;;
8279;SDS011;8335;42.646;23.380;2023-08-08T06:26:12;3.38;;;2.22;;
8279;SDS011;8335;42.646;23.380;2023-08-08T06:28:39;3.45;;;2.22;;
8279;SDS011;8335;42.646;23.380;2023-08-08T06:31:06;3.33;;;2.00;;
8279;SDS011;8335;42.646;23.380;2023-08-08T06:33:34;4.50;;;2.30;;
8279;SDS011;8335;42.646;23.380;2023-08-08T06:36:01;2.40;;;2.20;;
8279;SDS011;8335;42.646;23.380;2023-08-08T06:38:28;4.82;;;2.20;;
8279;SDS011;8335;42.646;23.380;2023-08-08T06:40:58;2.40;;;2.20;;
8279;SDS011;8335;42.646;23.380;2023-08-08T06:43:25;3.72;;;2.05;;
8279;SDS011;8335;42.646;23.380;2023-08-08T06:45:52;2.70;;;1.70;;
8279;SDS011;8335;42.646;23.380;2023-08-08T06:48:19;1.85;;;1.73;;
8279;SDS011;8335;42.646;23.380;2023-08-08T06:50:47;2.08;;;1.73;;
8279;SDS011;8335;42.646;23.380;2023-08-08T06:53:14;3.38;;;1.90;;
8279;SDS011;8335;42.646;23.380;2023-08-08T06:55:41;3.20;;;2.13;;
8279;SDS011;8335;42.646;23.380;2023-08-08T06:58:08;3.30;;;2.00;;
8279;SDS011;8335;42.646;23.380;2023-08-08T07:00:35;4.10;;;2.20;;
8279;SDS011;8335;42.646;23.380;2023-08-08T07:03:01;3.65;;;1.90;;
8279;SDS011;8335;42.646;23.380;2023-08-08T07:05:28;2.35;;;1.80;;
8279;SDS011;8335;42.646;23.380;2023-08-08T07:07:56;1.90;;;1.70;;
8279;SDS011;8335;42.646;23.380;2023-08-08T07:10:23;2.00;;;1.52;;
8279;SDS011;8335;42.646;23.380;2023-08-08T07:12:50;2.20;;;1.52;;
8279;SDS011;8335;42.646;23.380;2023-08-08T07:15:17;2.72;;;1.77;;
8279;SDS011;8335;42.646;23.380;2023-08-08T07:17:44;3.38;;;2.20;;
8279;SDS011;8335;42.646;23.380;2023-08-08T07:20:11;2.17;;;1.98;;
8279;SDS011;8335;42.646;23.380;2023-08-08T07:22:39;2.97;;;1.98;;
8279;SDS011;8335;42.646;23.380;2023-08-08T07:25:08;2.97;;;1.75;;
8279;SDS011;8335;42.646;23.380;2023-08-08T07:27:36;3.22;;;1.90;;
8279;SDS011;8335;42.646;23.380;2023-08-08T07:30:03;1.80;;;1.70;;
8279;SDS011;8335;42.646;23.380;2023-08-08T07:32:32;2.42;;;1.88;;
8279;SDS011;8335;42.646;23.380;2023-08-08T07:34:58;1.80;;;1.70;;
8279;SDS011;8335;42.646;23.380;2023-08-08T07:37:27;1.58;;;1.42;;
8279;SDS011;8335;42.646;23.380;2023-08-08T07:39:54;5.20;;;1.70;;
8279;SDS011;8335;42.646;23.380;2023-08-08T07:42:22;1.75;;;1.65;;
8279;SDS011;8335;42.646;23.380;2023-08-08T07:44:49;2.10;;;1.90;;
8279;SDS011;8335;42.646;23.380;2023-08-08T07:47:16;2.38;;;1.80;;
8279;SDS011;8335;42.646;23.380;2023-08-08T07:49:43;2.00;;;1.80;;
8279;SDS011;8335;42.646;23.380;2023-08-08T07:52:10;2.72;;;1.60;;
8279;SDS011;8335;42.646;23.380;2023-08-08T07:54:36;1.85;;;1.30;;
8279;SDS011;8335;42.646;23.380;2023-08-08T07:57:03;1.25;;;1.15;;
8279;SDS011;8335;42.646;23.380;2023-08-08T07:59:32;1.50;;;1.40;;
8279;SDS011;8335;42.646;23.380;2023-08-08T08:01:58;2.15;;;1.20;;
8279;SDS011;8335;42.646;23.380;2023-08-08T08:04:25;1.63;;;1.50;;
8279;SDS011;8335;42.646;23.380;2023-08-08T08:06:52;2.50;;;1.50;;
8279;SDS011;8335;42.646;23.380;2023-08-08T08:09:19;1.85;;;1.20;;
8279;SDS011;8335;42.646;23.380;2023-08-08T08:11:45;1.88;;;1.48;;
8279;SDS011;8335;42.646;23.380;2023-08-08T08:14:12;1.77;;;1.30;;
8279;SDS011;8335;42.646;23.380;2023-08-08T08:16:40;1.45;;;1.10;;
8279;SDS011;8335;42.646;23.380;2023-08-08T08:19:07;1.25;;;1.17;;
8279;SDS011;8335;42.646;23.380;2023-08-08T08:21:34;1.50;;;1.30;;
8279;SDS011;8335;42.646;23.380;2023-08-08T08:24:01;1.90;;;1.38;;
8279;SDS011;8335;42.646;23.380;2023-08-08T08:26:28;1.30;;;1.15;;
8279;SDS011;8335;42.646;23.380;2023-08-08T08:28:55;3.00;;;1.35;;
8279;SDS011;8335;42.646;23.380;2023-08-08T08:31:21;3.78;;;1.58;;
8279;SDS011;8335;42.646;23.380;2023-08-08T08:33:50;3.63;;;1.52;;
8279;SDS011;8335;42.646;23.380;2023-08-08T08:36:16;2.30;;;1.35;;
8279;SDS011;8335;42.646;23.380;2023-08-08T08:38:43;2.65;;;1.48;;
8279;SDS011;8335;42.646;23.380;2023-08-08T08:41:12;2.25;;;1.30;;
8279;SDS011;8335;42.646;23.380;2023-08-08T08:43:43;2.03;;;1.20;;
8279;SDS011;8335;42.646;23.380;2023-08-08T08:46:10;1.40;;;1.30;;
8279;SDS011;8335;42.646;23.380;2023-08-08T08:48:38;2.25;;;1.52;;
8279;SDS011;8335;42.646;23.380;2023-08-08T08:51:06;1.60;;;1.50;;
8279;SDS011;8335;42.646;23.380;2023-08-08T08:53:32;2.55;;;1.60;;
8279;SDS011;8335;42.646;23.380;2023-08-08T08:56:04;2.90;;;2.10;;
8279;SDS011;8335;42.646;23.380;2023-08-08T08:58:31;2.03;;;1.85;;
8279;SDS011;8335;42.646;23.380;2023-08-08T09:00:58;1.83;;;1.73;;
8279;SDS011;8335;42.646;23.380;2023-08-08T09:03:24;5.93;;;2.20;;
8279;SDS011;8335;42.646;23.380;2023-08-08T09:05:51;3.15;;;1.90;;
8279;SDS011;8335;42.646;23.380;2023-08-08T09:08:21;2.10;;;1.90;;
8279;SDS011;8335;42.646;23.380;2023-08-08T09:10:48;2.55;;;2.08;;
8279;SDS011;8335;42.646;23.380;2023-08-08T09:13:16;2.40;;;2.20;;
8279;SDS011;8335;42.646;23.380;2023-08-08T09:15:46;1.63;;;1.52;;
8279;SDS011;8335;42.646;23.380;2023-08-08T09:18:13;4.45;;;1.73;;
8279;SDS011;8335;42.646;23.380;2023-08-08T09:20:40;3.25;;;1.70;;
8279;SDS011;8335;42.646;23.380;2023-08-08T09:23:08;3.55;;;1.90;;
8279;SDS011;8335;42.646;23.380;2023-08-08T09:25:37;4.30;;;1.60;;
8279;SDS011;8335;42.646;23.380;2023-08-08T09:28:04;1.98;;;1.70;;
8279;SDS011;8335;42.646;23.380;2023-08-08T09:30:31;2.03;;;1.33;;
8279;SDS011;8335;42.646;23.380;2023-08-08T09:32:58;1.48;;;1.30;;
8279;SDS011;8335;42.646;23.380;2023-08-08T09:35:26;1.65;;;1.40;;
8279;SDS011;8335;42.646;23.380;2023-08-08T09:37:55;2.13;;;1.33;;
8279;SDS011;8335;42.646;23.380;2023-08-08T09:40:22;2.00;;;1.55;;
8279;SDS011;8335;42.646;23.380;2023-08-08T09:42:52;2.83;;;1.88;;
8279;SDS011;8335;42.646;23.380;2023-08-08T09:45:19;3.47;;;1.85;;
8279;SDS011;8335;42.646;23.380;2023-08-08T09:47:48;1.48;;;1.38;;
8279;SDS011;8335;42.646;23.380;2023-08-08T09:50:17;2.30;;;1.40;;
8279;SDS011;8335;42.646;23.380;2023-08-08T09:52:45;2.83;;;1.50;;
8279;SDS011;8335;42.646;23.380;2023-08-08T09:55:13;4.40;;;1.60;;
8279;SDS011;8335;42.646;23.380;2023-08-08T09:57:40;1.33;;;1.23;;
8279;SDS011;8335;42.646;23.380;2023-08-08T10:00:09;1.52;;;1.42;;
8279;SDS011;8335;42.646;23.380;2023-08-08T10:02:41;1.73;;;1.40;;
8279;SDS011;8335;42.646;23.380;2023-08-08T10:05:09;1.77;;;1.67;;
8279;SDS011;8335;42.646;23.380;2023-08-08T10:07:38;1.77;;;1.40;;
8279;SDS011;8335;42.646;23.380;2023-08-08T10:10:06;2.53;;;1.40;;
8279;SDS011;8335;42.646;23.380;2023-08-08T10:12:35;3.13;;;1.42;;
8279;SDS011;8335;42.646;23.380;2023-08-08T10:15:03;1.70;;;1.60;;
8279;SDS011;8335;42.646;23.380;2023-08-08T10:17:36;3.15;;;1.30;;
8279;SDS011;8335;42.646;23.380;2023-08-08T10:20:04;1.67;;;1.58;;
8279;SDS011;8335;42.646;23.380;2023-08-08T10:22:36;4.18;;;1.88;;
8279;SDS011;8335;42.646;23.380;2023-08-08T10:25:04;1.92;;;1.80;;
8279;SDS011;8335;42.646;23.380;2023-08-08T10:27:32;4.22;;;1.40;;
8279;SDS011;8335;42.646;23.380;2023-08-08T10:30:03;3.08;;;2.13;;
8279;SDS011;8335;42.646;23.380;2023-08-08T10:32:39;1.80;;;1.60;;
8279;SDS011;8335;42.646;23.380;2023-08-08T10:35:07;1.75;;;1.55;;
8279;SDS011;8335;42.646;23.380;2023-08-08T10:37:35;2.47;;;1.38;;
8279;SDS011;8335;42.646;23.380;2023-08-08T10:40:03;2.20;;;2.00;;
8279;SDS011;8335;42.646;23.380;2023-08-08T10:42:32;2.20;;;2.00;;
8279;SDS011;8335;42.646;23.380;2023-08-08T10:45:08;2.47;;;1.80;;
8279;SDS011;8335;42.646;23.380;2023-08-08T10:47:36;3.83;;;2.35;;
8279;SDS011;8335;42.646;23.380;2023-08-08T10:50:05;2.60;;;1.90;;
8279;SDS011;8335;42.646;23.380;2023-08-08T10:52:37;2.50;;;2.20;;
8279;SDS011;8335;42.646;23.380;2023-08-08T10:55:05;2.00;;;1.90;;
8279;SDS011;8335;42.646;23.380;2023-08-08T10:57:43;2.38;;;2.17;;
8279;SDS011;8335;42.646;23.380;2023-08-08T11:00:20;1.80;;;1.70;;
8279;SDS011;8335;42.646;23.380;2023-08-08T11:02:50;2.00;;;1.80;;
8279;SDS011;8335;42.646;23.380;2023-08-08T11:05:18;3.72;;;1.77;;
8279;SDS011;8335;42.646;23.380;2023-08-08T11:07:45;2.05;;;1.95;;
8279;SDS011;8335;42.646;23.380;2023-08-08T11:10:12;2.25;;;1.70;;
8279;SDS011;8335;42.646;23.380;2023-08-08T11:12:39;1.73;;;1.50;;
8279;SDS011;8335;42.646;23.380;2023-08-08T11:15:06;1.85;;;1.75;;
8279;SDS011;8335;42.646;23.380;2023-08-08T11:17:34;2.78;;;2.00;;
8279;SDS011;8335;42.646;23.380;2023-08-08T11:20:02;1.60;;;1.50;;
8279;SDS011;8335;42.646;23.380;2023-08-08T11:22:30;2.78;;;1.85;;
8279;SDS011;8335;42.646;23.380;2023-08-08T11:24:57;2.95;;;1.80;;
8279;SDS011;8335;42.646;23.380;2023-08-08T11:27:28;2.05;;;1.60;;
8279;SDS011;8335;42.646;23.380;2023-08-08T11:29:56;2.20;;;1.80;;
8279;SDS011;8335;42.646;23.380;2023-08-08T11:32:22;2.08;;;1.83;;
8279;SDS011;8335;42.646;23.380;2023-08-08T11:34:50;3.42;;;1.80;;
8279;SDS011;8335;42.646;23.380;2023-08-08T11:37:18;2.65;;;1.60;;
8279;SDS011;8335;42.646;23.380;2023-08-08T11:39:45;2.40;;;1.75;;
8279;SDS011;8335;42.646;23.380;2023-08-08T11:42:12;2.38;;;2.17;;
8279;SDS011;8335;42.646;23.380;2023-08-08T11:44:40;1.98;;;1.70;;
8279;SDS011;8335;42.646;23.380;2023-08-08T11:47:07;1.92;;;1.60;;
8279;SDS011;8335;42.646;23.380;2023-08-08T11:49:39;1.70;;;1.60;;
8279;SDS011;8335;42.646;23.380;2023-08-08T11:52:06;2.30;;;1.88;;
8279;SDS011;8335;42.646;23.380;2023-08-08T11:54:36;1.80;;;1.70;;
8279;SDS011;8335;42.646;23.380;2023-08-08T11:57:03;2.00;;;1.80;;
8279;SDS011;8335;42.646;23.380;2023-08-08T11:59:30;2.58;;;2.10;;
8279;SDS011;8335;42.646;23.380;2023-08-08T12:01:57;2.70;;;1.80;;
8279;SDS011;8335;42.646;23.380;2023-08-08T12:04:25;2.08;;;1.70;;
8279;SDS011;8335;42.646;23.380;2023-08-08T12:06:59;2.20;;;1.88;;
8279;SDS011;8335;42.646;23.380;2023-08-08T12:09:28;2.63;;;2.42;;
8279;SDS011;8335;42.646;23.380;2023-08-08T12:12:00;4.38;;;2.22;;
8279;SDS011;8335;42.646;23.380;2023-08-08T12:14:27;3.03;;;1.80;;
8279;SDS011;8335;42.646;23.380;2023-08-08T12:16:54;2.55;;;1.92;;
8279;SDS011;8335;42.646;23.380;2023-08-08T12:19:22;4.30;;;1.67;;
8279;SDS011;8335;42.646;23.380;2023-08-08T12:21:49;2.10;;;1.90;;
8279;SDS011;8335;42.646;23.380;2023-08-08T12:24:17;2.45;;;1.60;;
8279;SDS011;8335;42.646;23.380;2023-08-08T12:26:44;2.58;;;1.80;;
8279;SDS011;8335;42.646;23.380;2023-08-08T12:29:12;1.90;;;1.67;;
8279;SDS011;8335;42.646;23.380;2023-08-08T12:31:39;2.28;;;1.95;;
8279;SDS011;8335;42.646;23.380;2023-08-08T12:34:06;4.60;;;1.50;;
8279;SDS011;8335;42.646;23.380;2023-08-08T12:36:33;1.80;;;1.70;;
8279;SDS011;8335;42.646;23.380;2023-08-08T12:39:00;1.83;;;1.73;;
8279;SDS011;8335;42.646;23.380;2023-08-08T12:41:27;3.17;;;1.98;;
8279;SDS011;8335;42.646;23.380;2023-08-08T12:43:55;2.00;;;1.85;;
8279;SDS011;8335;42.646;23.380;2023-08-08T12:46:23;3.78;;;1.70;;
8279;SDS011;8335;42.646;23.380;2023-08-08T12:48:50;2.10;;;1.90;;
8279;SDS011;8335;42.646;23.380;2023-08-08T12:51:17;2.38;;;2.10;;
8279;SDS011;8335;42.646;23.380;2023-08-08T12:53:44;2.10;;;1.90;;
8279;SDS011;8335;42.646;23.380;2023-08-08T12:56:11;1.70;;;1.60;;
8279;SDS011;8335;42.646;23.380;2023-08-08T12:58:38;2.13;;;1.90;;
8279;SDS011;8335;42.646;23.380;2023-08-08T13:01:05;1.70;;;1.60;;
8279;SDS011;8335;42.646;23.380;2023-08-08T13:03:34;1.70;;;1.60;;
8279;SDS011;8335;42.646;23.380;2023-08-08T13:06:00;3.22;;;1.60;;
8279;SDS011;8335;42.646;23.380;2023-08-08T13:08:27;1.80;;;1.70;;
8279;SDS011;8335;42.646;23.380;2023-08-08T13:10:54;1.90;;;1.80;;
8279;SDS011;8335;42.646;23.380;2023-08-08T13:13:21;2.00;;;1.80;;
8279;SDS011;8335;42.646;23.380;2023-08-08T13:15:50;3.08;;;2.05;;
8279;SDS011;8335;42.646;23.380;2023-08-08T13:18:17;1.65;;;1.55;;
8279;SDS011;8335;42.646;23.380;2023-08-08T13:20:45;3.08;;;1.70;;
8279;SDS011;8335;42.646;23.380;2023-08-08T13:23:12;3.15;;;1.70;;
8279;SDS011;8335;42.646;23.380;2023-08-08T13:25:39;3.88;;;1.70;;
8279;SDS011;8335;42.646;23.380;2023-08-08T13:28:07;2.65;;;1.90;;
8279;SDS011;8335;42.646;23.380;2023-08-08T13:30:35;2.88;;;1.80;;
8279;SDS011;8335;42.646;23.380;2023-08-08T13:33:02;2.38;;;1.65;;
8279;SDS011;8335;42.646;23.380;2023-08-08T13:35:29;1.77;;;1.65;;
8279;SDS011;8335;42.646;23.380;2023-08-08T13:37:57;1.77;;;1.67;;
8279;SDS011;8335;42.646;23.380;2023-08-08T13:40:24;3.83;;;2.10;;
8279;SDS011;8335;42.646;23.380;2023-08-08T13:42:51;2.75;;;2.00;;
8279;SDS011;8335;42.646;23.380;2023-08-08T13:45:18;2.63;;;2.10;;
8279;SDS011;8335;42.646;23.380;2023-08-08T13:47:45;3.60;;;2.00;;
8279;SDS011;8335;42.646;23.380;2023-08-08T13:50:12;3.75;;;1.98;;
8279;SDS011;8335;42.646;23.380;2023-08-08T13:52:40;5.78;;;2.15;;
8279;SDS011;8335;42.646;23.380;2023-08-08T13:55:08;4.03;;;1.80;;
8279;SDS011;8335;42.646;23.380;2023-08-08T13:57:35;2.58;;;1.90;;
8279;SDS011;8335;42.646;23.380;2023-08-08T14:00:02;4.07;;;1.77;;
8279;SDS011;8335;42.646;23.380;2023-08-08T14:02:29;1.98;;;1.88;;
8279;SDS011;8335;42.646;23.380;2023-08-08T14:04:56;3.35;;;2.15;;
8279;SDS011;8335;42.646;23.380;2023-08-08T14:07:23;2.60;;;2.08;;
8279;SDS011;8335;42.646;23.380;2023-08-08T14:09:50;2.25;;;1.98;;
8279;SDS011;8335;42.646;23.380;2023-08-08T14:12:18;2.20;;;1.98;;
8279;SDS011;8335;42.646;23.380;2023-08-08T14:14:45;3.03;;;2.13;;
8279;SDS011;8335;42.646;23.380;2023-08-08T14:17:12;3.55;;;1.75;;
8279;SDS011;8335;42.646;23.380;2023-08-08T14:19:39;3.47;;;2.13;;
8279;SDS011;8335;42.646;23.380;2023-08-08T14:22:05;2.67;;;1.75;;
8279;SDS011;8335;42.646;23.380;2023-08-08T14:24:32;2.90;;;1.95;;
8279;SDS011;8335;42.646;23.380;2023-08-08T14:26:59;3.95;;;2.30;;
8279;SDS011;8335;42.646;23.380;2023-08-08T14:29:27;2.97;;;1.88;;
8279;SDS011;8335;42.646;23.380;2023-08-08T14:31:54;2.60;;;2.00;;
8279;SDS011;8335;42.646;23.380;2023-08-08T14:34:27;3.95;;;1.90;;
8279;SDS011;8335;42.646;23.380;2023-08-08T14:36:55;4.05;;;1.90;;
8279;SDS011;8335;42.646;23.380;2023-08-08T14:39:22;2.00;;;1.90;;
8279;SDS011;8335;42.646;23.380;2023-08-08T14:41:49;4.38;;;1.95;;
8279;SDS011;8335;42.646;23.380;2023-08-08T14:44:16;1.90;;;1.80;;
8279;SDS011;8335;42.646;23.380;2023-08-08T14:46:45;2.22;;;1.92;;
8279;SDS011;8335;42.646;23.380;2023-08-08T14:49:11;2.10;;;1.90;;
8279;SDS011;8335;42.646;23.380;2023-08-08T14:51:38;3.60;;;1.80;;
8279;SDS011;8335;42.646;23.380;2023-08-08T14:54:05;4.00;;;2.00;;
8279;SDS011;8335;42.646;23.380;2023-08-08T14:56:32;2.13;;;1.92;;
8279;SDS011;8335;42.646;23.380;2023-08-08T14:58:59;2.00;;;1.90;;
8279;SDS011;8335;42.646;23.380;2023-08-08T15:01:25;1.70;;;1.60;;